createdAt,value
2019-04-20T00:09:04.964Z,5.80
2019-04-20T00:14:10.934Z,5.50
2019-04-20T00:19:17.370Z,5.40
2019-04-20T00:24:26.894Z,5.20
2019-04-20T00:29:45.323Z,5.00
2019-04-20T00:34:39.842Z,4.90
2019-04-20T00:39:40.604Z,4.80
2019-04-20T00:44:49.538Z,4.80
2019-04-20T00:50:05.513Z,4.80
2019-04-20T00:54:58.190Z,4.70
2019-04-20T01:00:21.921Z,4.70
2019-04-20T01:05:35.421Z,4.60
2019-04-20T01:10:23.666Z,4.50
2019-04-20T01:15:38.734Z,4.40
2019-04-20T01:20:35.052Z,4.30
2019-04-20T01:25:43.626Z,4.40
2019-04-20T01:31:01.379Z,4.20
2019-04-20T01:36:08.754Z,4.20
2019-04-20T01:40:59.131Z,4.10
2019-04-20T01:46:10.148Z,3.90
2019-04-20T01:51:19.565Z,3.80
2019-04-20T01:56:32.931Z,3.70
2019-04-20T02:02:05.133Z,3.60
2019-04-20T02:07:08.233Z,3.50
2019-04-20T02:12:19.077Z,3.40
2019-04-20T02:17:33.166Z,3.30
2019-04-20T02:22:42.148Z,3.20
2019-04-20T02:27:42.835Z,3.20
2019-04-20T02:33:30.025Z,3.10
2019-04-20T02:39:05.571Z,3.00
2019-04-20T02:49:04.284Z,3.00
2019-04-20T02:59:45.327Z,2.90
2019-04-20T03:03:52.561Z,2.70
2019-04-20T03:09:22.567Z,2.80
2019-04-20T03:14:18.727Z,2.80
2019-04-20T03:19:23.348Z,2.80
2019-04-20T03:24:37.387Z,2.90
2019-04-20T03:30:40.156Z,2.80
2019-04-20T03:35:23.847Z,2.70
2019-04-20T03:40:22.719Z,2.50
2019-04-20T03:45:18.370Z,2.50
2019-04-20T03:50:41.150Z,2.30
2019-04-20T03:56:03.765Z,2.30
2019-04-20T04:01:37.469Z,2.20
2019-04-20T04:06:26.379Z,2.10
2019-04-20T04:11:40.305Z,2.00
2019-04-20T04:16:37.246Z,2.00
2019-04-20T04:21:46.850Z,2.00
2019-04-20T04:26:56.064Z,2.10
2019-04-20T04:32:49.611Z,2.00
2019-04-20T04:37:17.612Z,2.00
2019-04-20T04:42:37.773Z,2.00
2019-04-20T04:47:12.100Z,2.10
2019-04-20T04:52:25.984Z,2.10
2019-04-20T04:57:22.695Z,2.20
2019-04-20T05:02:33.595Z,2.40
2019-04-20T05:07:49.611Z,2.50
2019-04-20T05:12:41.001Z,2.70
2019-04-20T05:18:05.817Z,2.80
2019-04-20T05:23:13.047Z,2.90
2019-04-20T05:38:41.904Z,3.10
2019-04-20T05:43:47.215Z,3.70
2019-04-20T05:48:56.182Z,3.90
2019-04-20T05:54:05.046Z,4.00
2019-04-20T05:59:05.806Z,4.20
2019-04-20T06:04:17.421Z,4.40
2019-04-20T06:14:43.180Z,4.80
2019-04-20T06:19:54.660Z,5.00
2019-04-20T06:25:26.067Z,5.30
2019-04-20T06:30:10.920Z,5.50
2019-04-20T06:35:37.132Z,5.80
2019-04-20T06:40:45.788Z,6.00
2019-04-20T06:45:44.787Z,6.30
2019-04-20T06:50:39.095Z,6.60
2019-04-20T06:55:58.887Z,6.90
2019-04-20T07:01:04.163Z,7.10
2019-04-20T07:06:26.706Z,7.40
2019-04-20T07:11:18.797Z,7.70
2019-04-20T07:16:36.618Z,8.00
2019-04-20T07:22:10.572Z,8.20
2019-04-20T07:27:04.604Z,8.50
2019-04-20T07:32:05.097Z,8.60
2019-04-20T08:08:13.195Z,8.90
2019-04-20T08:13:25.709Z,10.70
2019-04-20T08:23:33.642Z,11.10
2019-04-20T08:28:33.879Z,11.10
2019-04-20T08:34:02.497Z,11.20
2019-04-20T08:39:15.093Z,11.20
2019-04-20T08:44:09.824Z,11.50
2019-04-20T08:49:13.196Z,11.80
2019-04-20T08:59:02.082Z,12.20
2019-04-20T09:04:13.282Z,12.80
2019-04-20T09:14:23.789Z,13.20
2019-04-20T09:19:42.149Z,13.50
2019-04-20T09:24:58.048Z,13.80
2019-04-20T09:30:00.497Z,13.90
2019-04-20T09:35:11.715Z,14.00
2019-04-20T09:40:55.470Z,14.00
2019-04-20T09:45:47.601Z,14.20
2019-04-20T09:51:21.999Z,14.50
2019-04-20T09:56:24.231Z,15.00
2019-04-20T10:01:29.407Z,15.10
2019-04-20T10:06:24.739Z,15.50
2019-04-20T10:11:29.686Z,15.70
2019-04-20T10:16:35.672Z,15.90
2019-04-20T10:21:41.578Z,15.90
2019-04-20T10:26:46.284Z,16.20
2019-04-20T10:31:55.743Z,16.40
2019-04-20T10:37:17.613Z,16.50
2019-04-20T10:42:23.883Z,16.30
2019-04-20T10:47:29.383Z,16.50
2019-04-20T10:52:35.977Z,16.40
2019-04-20T10:57:41.729Z,16.50
2019-04-20T11:02:48.068Z,16.60
2019-04-20T11:07:52.975Z,16.80
2019-04-20T11:12:57.544Z,16.90
2019-04-20T11:33:18.225Z,16.80
2019-04-20T11:38:24.023Z,16.80
2019-04-20T11:43:35.675Z,16.80
2019-04-20T11:48:41.607Z,16.70
2019-04-20T11:53:46.337Z,16.50
2019-04-20T11:58:51.147Z,16.30
2019-04-20T12:04:05.231Z,16.10
2019-04-20T12:09:05.153Z,16.30
2019-04-20T12:14:12.481Z,16.60
2019-04-20T12:19:18.664Z,16.70
2019-04-20T12:24:24.638Z,16.40
2019-04-20T12:29:29.915Z,16.70
2019-04-20T12:34:35.009Z,16.80
2019-04-20T12:39:39.719Z,17.00
2019-04-20T12:44:44.292Z,16.80
2019-04-20T12:49:49.686Z,16.80
2019-04-20T12:54:54.606Z,16.60
2019-04-20T12:59:59.433Z,16.50
2019-04-20T13:05:04.972Z,16.50
2019-04-20T13:10:09.924Z,16.80
2019-04-20T13:15:42.476Z,17.10
2019-04-20T13:20:48.023Z,17.10
2019-04-20T13:25:52.969Z,17.20
2019-04-20T13:30:57.884Z,17.40
2019-04-20T13:36:03.955Z,17.50
2019-04-20T13:41:09.502Z,17.60
2019-04-20T13:46:15.118Z,17.50
2019-04-20T13:51:21.121Z,17.50
2019-04-20T13:56:26.366Z,17.10
2019-04-20T14:01:42.618Z,16.90
2019-04-20T14:06:48.325Z,17.20
2019-04-20T14:11:53.673Z,17.60
2019-04-20T14:17:05.508Z,17.70
2019-04-20T14:22:10.463Z,17.80
2019-04-20T14:27:30.846Z,17.80
2019-04-20T14:32:36.764Z,17.90
2019-04-20T14:37:41.738Z,17.90
2019-04-20T14:42:50.353Z,18.00
2019-04-20T14:47:53.961Z,17.90
2019-04-20T14:52:59.794Z,17.90
2019-04-20T14:58:08.828Z,18.10
2019-04-20T15:03:38.687Z,18.20
2019-04-20T15:08:44.898Z,18.20
2019-04-20T15:13:50.883Z,18.20
2019-04-20T15:19:13.917Z,18.20
2019-04-20T15:24:19.696Z,18.40
2019-04-20T15:29:24.374Z,18.60
2019-04-20T15:34:29.085Z,18.60
2019-04-20T15:39:34.815Z,18.80
2019-04-20T15:44:39.725Z,18.80
2019-04-20T15:49:44.364Z,18.80
2019-04-20T15:54:49.702Z,18.80
2019-04-20T15:59:54.383Z,18.80
2019-04-20T16:05:10.130Z,18.80
2019-04-20T16:10:15.054Z,18.70
2019-04-20T16:15:19.926Z,18.60
2019-04-20T16:20:25.835Z,18.50
2019-04-20T16:25:41.429Z,18.50
2019-04-20T16:30:47.550Z,18.40
2019-04-20T16:35:52.505Z,18.40
2019-04-20T16:40:57.158Z,18.30
2019-04-20T16:46:01.899Z,18.30
2019-04-20T16:51:06.923Z,18.20
2019-04-20T16:56:13.044Z,18.10
2019-04-20T17:01:19.280Z,17.90
2019-04-20T17:06:24.422Z,17.70
2019-04-20T17:11:29.973Z,17.50
2019-04-20T17:16:35.574Z,17.30
2019-04-20T17:21:42.379Z,17.10
2019-04-20T17:26:57.062Z,16.80
2019-04-20T17:32:11.852Z,16.70
2019-04-20T17:37:16.538Z,16.40
2019-04-20T17:42:36.310Z,16.30
2019-04-20T17:47:47.188Z,16.10
2019-04-20T17:52:49.597Z,15.90
2019-04-20T17:57:43.513Z,15.70
2019-04-20T18:03:07.409Z,15.50
2019-04-20T18:08:20.889Z,15.30
2019-04-20T18:23:49.660Z,15.10
2019-04-20T18:29:15.147Z,14.20
2019-04-20T18:34:15.055Z,14.20
2019-04-20T18:39:22.138Z,14.10
2019-04-20T18:44:32.240Z,14.00
2019-04-20T18:49:43.167Z,13.90
2019-04-20T18:54:42.456Z,13.80
2019-04-20T18:59:49.236Z,13.50
2019-04-20T19:04:51.192Z,13.30
2019-04-20T19:10:02.645Z,13.10
2019-04-20T19:15:30.501Z,13.00
2019-04-20T19:20:28.912Z,12.90
2019-04-20T19:25:37.423Z,12.80
2019-04-20T19:30:49.960Z,12.70
2019-04-20T19:35:56.360Z,12.60
2019-04-20T19:41:05.910Z,12.60
2019-04-20T19:46:45.288Z,12.50
2019-04-20T19:51:29.925Z,12.40
2019-04-20T19:56:32.392Z,12.30
2019-04-20T20:01:25.366Z,12.20
2019-04-20T20:06:41.365Z,12.10
2019-04-20T20:11:42.525Z,12.00
2019-04-20T20:17:06.152Z,11.90
2019-04-20T20:22:02.379Z,11.80
2019-04-20T20:27:02.539Z,11.70
2019-04-20T20:32:15.631Z,11.60
2019-04-20T20:37:14.075Z,11.50
2019-04-20T20:42:28.133Z,11.30
2019-04-20T20:47:41.945Z,11.30
2019-04-20T20:52:43.459Z,11.20
2019-04-20T20:57:45.043Z,11.10
2019-04-20T21:02:47.699Z,10.90
2019-04-20T21:07:49.914Z,10.80
2019-04-20T21:12:59.220Z,10.70
2019-04-20T21:18:20.917Z,10.70
2019-04-20T21:23:17.542Z,10.60
2019-04-20T21:28:13.112Z,10.40
2019-04-20T21:33:20.721Z,10.20
2019-04-20T21:38:24.938Z,10.10
2019-04-20T21:43:33.837Z,10.00
2019-04-20T21:48:51.404Z,9.80
2019-04-20T21:53:42.510Z,9.70
2019-04-20T21:58:50.436Z,9.60
2019-04-20T22:03:56.211Z,9.60
2019-04-20T22:09:02.264Z,9.50
2019-04-20T22:14:15.894Z,9.40
2019-04-20T22:19:28.467Z,9.40
2019-04-20T22:24:39.899Z,9.40
2019-04-20T22:29:28.316Z,9.40
2019-04-20T22:39:47.744Z,9.40
2019-04-20T22:44:56.647Z,9.00
2019-04-20T22:50:16.201Z,8.80
2019-04-20T22:55:25.151Z,8.70
2019-04-20T23:00:15.919Z,8.70
2019-04-20T23:05:18.591Z,8.80
2019-04-20T23:10:27.950Z,8.80
2019-04-20T23:15:30.156Z,8.80
2019-04-20T23:20:38.698Z,8.60
2019-04-20T23:25:42.941Z,8.40
2019-04-20T23:30:54.288Z,8.40
2019-04-20T23:35:56.574Z,8.50
2019-04-20T23:41:01.692Z,8.50
2019-04-20T23:46:31.401Z,8.40
2019-04-20T23:51:54.219Z,8.10
2019-04-20T23:56:41.662Z,7.60
